Mobile, Arizona
Current Conditions -  °F | °C
As of 7:35 PM on Monday 20 Oct 2014 (Local Time) from KCGZ Reporting Station
Clear Clear  
Wind Chill: 24°   Ceiling: Unl
Heat Index: 24°   Visibility: 10mi
Dew Point:   Wind: 0mph
Humidity: 36%   Direction: NA
Pressure: 29.85"   Gusts: NA
Location:  32.9044°N, 112.146°W
Report Text: KCGZ 210235Z AUTO 00000KT 10SM CLR 24/08 A2985 RMK AO1
Loading
Personal Weather Stations






























Interactive Weather Map
Tropical Storm Tracking
New forecast layout! Learn more

10-Day Weather Forecast

Advertisements
Track Severe Weather on mobile